Time;durP1;ratioP1;P1;durP2;ratioP2;P2;SDS_P1;SDS_P2;PMS_P1;PMS_P2;Temp;Humidity;BMP_temperature;BMP_pressure;BME280_temperature;BME280_humidity;BME280_pressure;Samples;Min_cycle;Max_cycle;Signal;HPM_P1;HPM_P2
2022/01/29 00:00:35;;;;;;;6.30;2.60;;;;;;;-1.94;80.68;101137.79;84484;1334;22637;-77
2022/01/29 00:02:51;;;;;;;4.80;2.00;;;;;;;-1.96;80.61;101137.58;84562;1328;22591;-78
2022/01/29 00:04:57;;;;;;;9.90;4.40;;;;;;;-2.00;80.84;101133.55;84431;1335;24276;-79
2022/01/29 00:07:04;;;;;;;5.80;2.70;;;;;;;-2.02;80.77;101135.20;84527;1333;22614;-77
2022/01/29 00:09:14;;;;;;;4.20;2.10;;;;;;;-2.03;80.78;101134.48;84484;1332;24275;-79
2022/01/29 00:11:26;;;;;;;4.10;2.30;;;;;;;-2.01;81.02;101136.59;84504;1334;25413;-77
2022/01/29 00:13:35;;;;;;;4.90;2.20;;;;;;;-2.00;81.12;101139.35;84544;1331;22695;-77
2022/01/29 00:15:41;;;;;;;3.70;1.80;;;;;;;-2.00;81.22;101143.47;84456;1334;24251;-76
2022/01/29 00:17:47;;;;;;;6.90;2.00;;;;;;;-2.01;81.17;101145.83;84472;1334;22612;-78
2022/01/29 00:19:54;;;;;;;6.30;2.30;;;;;;;-2.03;81.12;101149.53;84433;1335;22593;-78
2022/01/29 00:22:03;;;;;;;4.90;1.90;;;;;;;-2.06;81.35;101155.10;84526;1334;25511;-73
2022/01/29 00:24:13;;;;;;;6.50;2.20;;;;;;;-2.08;81.43;101155.03;84543;1332;22913;-74
2022/01/29 00:26:22;;;;;;;6.40;2.30;;;;;;;-2.11;81.44;101156.54;84415;1335;24081;-76
2022/01/29 00:28:29;;;;;;;7.20;2.40;;;;;;;-2.13;81.37;101159.39;84510;1336;22626;-78
2022/01/29 00:30:42;;;;;;;9.70;2.10;;;;;;;-2.14;81.55;101162.58;84564;1335;22599;-75
2022/01/29 00:32:51;;;;;;;6.20;2.20;;;;;;;-2.15;81.58;101160.17;84538;1333;22827;-74
2022/01/29 00:34:58;;;;;;;4.20;2.50;;;;;;;-2.14;81.79;101162.40;84447;1334;25429;-74
2022/01/29 00:37:06;;;;;;;10.10;3.20;;;;;;;-2.14;81.82;101160.36;84438;1335;22615;-78
2022/01/29 00:39:14;;;;;;;6.20;2.90;;;;;;;-2.13;81.87;101161.06;84496;1332;22819;-78
2022/01/29 00:41:23;;;;;;;4.30;2.30;;;;;;;-2.14;81.84;101164.13;84576;1333;22627;-73
2022/01/29 00:43:29;;;;;;;5.60;2.70;;;;;;;-2.15;81.87;101161.54;84545;1332;24042;-74
2022/01/29 00:45:35;;;;;;;8.70;3.50;;;;;;;-2.17;82.01;101160.80;84505;1329;22681;-77
2022/01/29 00:47:44;;;;;;;5.60;2.70;;;;;;;-2.18;81.97;101156.30;84480;1332;25495;-77
2022/01/29 00:49:54;;;;;;;6.10;2.40;;;;;;;-2.22;81.90;101158.09;84493;1333;23421;-77
2022/01/29 00:52:03;;;;;;;5.90;2.70;;;;;;;-2.25;82.05;101162.80;84506;1332;24299;-73
2022/01/29 00:54:09;;;;;;;11.90;4.40;;;;;;;-2.26;82.09;101158.50;84536;1334;23085;-74
2022/01/29 00:56:16;;;;;;;5.40;2.90;;;;;;;-2.27;82.11;101157.44;84455;1333;22613;-77
2022/01/29 00:58:22;;;;;;;5.40;2.40;;;;;;;-2.27;82.25;101149.91;84537;1333;22950;-77
2022/01/29 01:00:28;;;;;;;5.10;3.10;;;;;;;-2.25;82.40;101145.03;84544;1333;22755;-76
2022/01/29 01:02:35;;;;;;;4.90;3.30;;;;;;;-2.22;82.66;101147.83;84456;1333;24343;-77
2022/01/29 01:04:41;;;;;;;6.00;3.00;;;;;;;-2.20;82.42;101147.91;84525;1333;22703;-78
2022/01/29 01:06:48;;;;;;;9.20;3.80;;;;;;;-2.22;82.26;101148.51;84424;1335;24002;-74
2022/01/29 01:08:58;;;;;;;8.80;3.90;;;;;;;-2.25;82.29;101148.45;84443;1335;24317;-74
2022/01/29 01:11:08;;;;;;;9.40;3.80;;;;;;;-2.28;82.30;101148.38;84480;1332;22835;-78
2022/01/29 01:13:16;;;;;;;8.50;3.70;;;;;;;-2.32;82.17;101148.09;84466;1333;23997;-77
2022/01/29 01:15:23;;;;;;;9.20;4.00;;;;;;;-2.37;82.12;101145.92;84547;1331;22635;-74
2022/01/29 01:17:28;;;;;;;5.80;3.00;;;;;;;-2.40;82.45;101142.05;84446;1329;22827;-72
2022/01/29 01:19:34;;;;;;;8.10;3.80;;;;;;;-2.42;82.40;101137.22;84479;1329;22720;-72
2022/01/29 01:21:40;;;;;;;8.10;3.80;;;;;;;-2.44;82.50;101137.70;84499;1324;22721;-74
2022/01/29 01:23:46;;;;;;;9.20;3.80;;;;;;;-2.45;82.41;101136.63;84538;1332;24366;-72
2022/01/29 01:25:52;;;;;;;8.10;4.60;;;;;;;-2.46;82.58;101133.02;84529;1333;24239;-76
2022/01/29 01:28:00;;;;;;;6.10;4.30;;;;;;;-2.48;82.65;101129.88;84548;1327;23055;-78
2022/01/29 01:30:09;;;;;;;8.80;4.40;;;;;;;-2.50;82.80;101131.70;83840;1333;1004750;-78
2022/01/29 01:32:16;;;;;;;6.80;4.30;;;;;;;-2.51;82.73;101127.07;84471;1332;24297;-74
2022/01/29 01:34:23;;;;;;;8.70;4.70;;;;;;;-2.53;82.85;101122.41;84513;1331;22657;-76
2022/01/29 01:36:29;;;;;;;8.00;4.30;;;;;;;-2.54;82.81;101115.36;84527;1332;24041;-73
2022/01/29 01:38:43;;;;;;;6.80;3.70;;;;;;;-2.58;82.64;101115.80;84389;1335;22628;-72
2022/01/29 01:40:56;;;;;;;8.10;4.70;;;;;;;-2.61;82.84;101115.18;84524;1333;22933;-78
2022/01/29 01:43:02;;;;;;;10.50;4.80;;;;;;;-2.64;82.93;101118.36;84539;1332;24367;-77
2022/01/29 01:45:09;;;;;;;8.00;4.00;;;;;;;-2.63;83.17;101116.33;84540;1332;24227;-79
2022/01/29 01:47:15;;;;;;;9.90;4.10;;;;;;;-2.62;83.27;101120.30;84437;1337;25463;-74
2022/01/29 01:49:21;;;;;;;7.30;4.20;;;;;;;-2.61;83.34;101117.44;84534;1331;22614;-74
2022/01/29 01:51:29;;;;;;;9.90;4.70;;;;;;;-2.61;83.22;101116.23;84504;1335;22622;-75
2022/01/29 01:53:40;;;;;;;13.70;5.50;;;;;;;-2.62;83.23;101114.66;84470;1329;22593;-72
2022/01/29 01:55:54;;;;;;;8.90;5.30;;;;;;;-2.64;83.15;101114.27;84384;1332;22737;-73
2022/01/29 01:58:00;;;;;;;9.70;4.70;;;;;;;-2.67;83.07;101114.01;84392;1334;25338;-73
2022/01/29 02:00:12;;;;;;;5.40;4.40;;;;;;;-2.71;83.30;101110.65;84422;1333;22772;-73
2022/01/29 02:02:17;;;;;;;6.00;4.30;;;;;;;-2.74;83.17;101107.16;84472;1334;22609;-73
2022/01/29 02:04:26;;;;;;;10.50;4.10;;;;;;;-2.74;83.28;101103.73;84435;1332;22613;-74
2022/01/29 02:06:35;;;;;;;9.00;4.30;;;;;;;-2.75;83.37;101101.98;84548;1331;22597;-77
2022/01/29 02:08:44;;;;;;;5.50;3.00;;;;;;;-2.76;83.55;101105.70;84530;1333;22563;-77
2022/01/29 02:10:52;;;;;;;8.90;4.40;;;;;;;-2.75;83.70;101099.95;84555;1328;22592;-74
2022/01/29 02:13:04;;;;;;;9.60;4.70;;;;;;;-2.74;83.61;101098.27;84408;1334;22593;-71
2022/01/29 02:15:18;;;;;;;12.70;5.80;;;;;;;-2.75;83.68;101099.63;84399;1338;25947;-74
2022/01/29 02:17:24;;;;;;;9.30;4.90;;;;;;;-2.74;83.77;101099.62;84397;1333;22835;-74
2022/01/29 02:19:30;;;;;;;11.30;4.90;;;;;;;-2.77;83.80;101101.42;84456;1330;22589;-72
2022/01/29 02:21:38;;;;;;;11.20;5.30;;;;;;;-2.78;83.79;101105.33;83829;1332;1003323;-77
2022/01/29 02:23:44;;;;;;;10.40;5.00;;;;;;;-2.79;83.79;101101.20;84412;1335;22764;-79
2022/01/29 02:25:50;;;;;;;8.80;4.40;;;;;;;-2.81;83.77;101102.67;84438;1333;22905;-74
2022/01/29 02:27:56;;;;;;;11.60;5.90;;;;;;;-2.83;83.73;101100.40;84485;1332;26598;-73
2022/01/29 02:30:02;;;;;;;6.50;4.50;;;;;;;-2.83;84.11;101100.41;84426;1335;22623;-73
2022/01/29 02:32:09;;;;;;;8.80;4.80;;;;;;;-2.84;83.90;101102.95;84523;1334;24241;-78
2022/01/29 02:34:15;;;;;;;5.50;4.20;;;;;;;-2.83;84.03;101098.70;84519;1335;22676;-77
2022/01/29 02:36:21;;;;;;;10.10;4.30;;;;;;;-2.82;84.02;101098.39;84565;1333;22596;-77
2022/01/29 02:38:28;;;;;;;9.80;5.20;;;;;;;-2.82;84.23;101099.06;84528;1333;22644;-79
2022/01/29 02:40:44;;;;;;;6.60;4.20;;;;;;;-2.85;84.01;101104.45;84517;1328;22633;-78
2022/01/29 02:42:52;;;;;;;6.70;4.40;;;;;;;-2.86;84.10;101101.00;84543;1331;22593;-78
2022/01/29 02:44:58;;;;;;;11.20;5.10;;;;;;;-2.88;83.99;101100.09;84442;1329;22645;-79
2022/01/29 02:47:15;;;;;;;8.60;4.60;;;;;;;-2.89;84.07;101105.20;84580;1327;22601;-79
2022/01/29 02:49:24;;;;;;;11.40;4.80;;;;;;;-2.90;84.10;101104.65;84544;1333;23084;-77
2022/01/29 02:51:30;;;;;;;8.00;4.40;;;;;;;-2.92;84.14;101103.06;84528;1333;23016;-74
2022/01/29 02:53:35;;;;;;;12.90;6.40;;;;;;;-2.94;84.14;101101.80;84464;1333;22706;-74
2022/01/29 02:55:41;;;;;;;9.70;6.30;;;;;;;-2.96;84.23;101103.61;84522;1332;22620;-78
2022/01/29 02:57:47;;;;;;;10.80;5.90;;;;;;;-2.98;84.28;101105.27;84535;1332;25531;-77
2022/01/29 03:00:00;;;;;;;9.30;5.20;;;;;;;-3.02;84.29;101103.11;84471;1337;23946;-78
2022/01/29 03:02:10;;;;;;;10.00;4.80;;;;;;;-3.05;84.32;101103.36;84448;1333;22618;-73
2022/01/29 03:04:15;;;;;;;14.10;5.60;;;;;;;-3.07;84.39;101098.19;84538;1331;22611;-73
2022/01/29 03:06:21;;;;;;;10.20;4.60;;;;;;;-3.08;84.39;101103.09;84565;1333;23053;-73
2022/01/29 03:08:28;;;;;;;10.30;5.10;;;;;;;-3.10;84.36;101101.33;84535;1333;22689;-73
2022/01/29 03:10:34;;;;;;;9.50;4.30;;;;;;;-3.12;84.40;101100.61;84522;1335;22614;-73
2022/01/29 03:12:43;;;;;;;15.20;5.50;;;;;;;-3.12;84.58;101102.33;84436;1336;24644;-74
2022/01/29 03:14:50;;;;;;;8.60;4.80;;;;;;;-3.12;84.41;101099.23;84532;1328;22724;-74
2022/01/29 03:16:58;;;;;;;7.50;4.50;;;;;;;-3.12;84.66;101104.70;84535;1334;22632;-72
2022/01/29 03:19:05;;;;;;;11.20;5.90;;;;;;;-3.11;84.73;101108.64;84483;1332;25341;-73
2022/01/29 03:21:11;;;;;;;11.30;6.50;;;;;;;-3.13;84.73;101105.17;84530;1330;22629;-73
2022/01/29 03:23:21;;;;;;;10.00;5.10;;;;;;;-3.17;84.66;101104.23;84519;1334;24221;-74
2022/01/29 03:25:27;;;;;;;13.00;6.30;;;;;;;-3.19;84.74;101099.38;84533;1331;22662;-74
2022/01/29 03:27:36;;;;;;;10.10;4.80;;;;;;;-3.21;84.76;101096.92;84543;1327;22607;-74
2022/01/29 03:29:45;;;;;;;11.60;5.00;;;;;;;-3.22;84.87;101093.98;84532;1331;22597;-72
2022/01/29 03:31:54;;;;;;;13.20;5.30;;;;;;;-3.23;84.94;101092.09;84514;1327;22606;-79
2022/01/29 03:33:59;;;;;;;5.10;3.50;;;;;;;-3.24;84.87;101084.03;84531;1333;23948;-77
2022/01/29 03:36:06;;;;;;;7.00;4.30;;;;;;;-3.24;84.92;101086.93;84443;1333;24222;-73
2022/01/29 03:38:15;;;;;;;13.60;4.80;;;;;;;-3.24;85.04;101083.88;84408;1335;24128;-73
2022/01/29 03:40:21;;;;;;;11.80;5.10;;;;;;;-3.23;85.10;101089.36;84500;1331;22668;-75
2022/01/29 03:42:35;;;;;;;6.80;4.60;;;;;;;-3.22;85.28;101094.16;84476;1333;22618;-78
2022/01/29 03:44:44;;;;;;;10.50;5.60;;;;;;;-3.20;85.26;101098.70;84533;1332;22614;-77
2022/01/29 03:46:50;;;;;;;8.80;5.00;;;;;;;-3.20;85.21;101100.89;84524;1335;23826;-72
2022/01/29 03:48:56;;;;;;;9.40;5.90;;;;;;;-3.22;85.04;101097.38;84464;1333;22604;-73
2022/01/29 03:51:01;;;;;;;11.00;5.20;;;;;;;-3.25;84.94;101098.69;84466;1332;23917;-77
2022/01/29 03:53:10;;;;;;;9.60;4.80;;;;;;;-3.29;84.91;101104.03;84539;1333;22590;-78
2022/01/29 03:55:17;;;;;;;10.10;5.00;;;;;;;-3.32;84.98;101110.23;84502;1333;22752;-78
2022/01/29 03:57:23;;;;;;;8.40;5.00;;;;;;;-3.37;85.01;101107.86;84528;1331;23876;-77
2022/01/29 03:59:29;;;;;;;7.20;4.80;;;;;;;-3.40;84.96;101103.20;84545;1329;25350;-78
2022/01/29 04:01:34;;;;;;;10.20;5.30;;;;;;;-3.42;84.98;101103.47;84495;1333;24065;-78
2022/01/29 04:03:40;;;;;;;8.90;4.60;;;;;;;-3.43;85.19;101106.52;84528;1335;25471;-77
2022/01/29 04:05:46;;;;;;;12.60;5.60;;;;;;;-3.42;85.40;101105.35;84525;1324;22601;-72
2022/01/29 04:07:52;;;;;;;8.90;5.10;;;;;;;-3.40;85.44;101103.33;84263;1333;272912;-72
2022/01/29 04:09:59;;;;;;;11.30;5.00;;;;;;;-3.40;85.38;101103.87;84541;1333;22628;-73
2022/01/29 04:12:07;;;;;;;10.60;4.60;;;;;;;-3.40;85.35;101102.36;84533;1333;22640;-77
2022/01/29 04:14:16;;;;;;;11.90;5.60;;;;;;;-3.39;85.56;101104.23;84539;1331;24291;-77
2022/01/29 04:16:25;;;;;;;7.80;6.10;;;;;;;-3.40;85.59;101103.19;84518;1332;23185;-78
2022/01/29 04:18:34;;;;;;;9.70;5.50;;;;;;;-3.41;85.55;101105.71;84501;1332;24103;-77
2022/01/29 04:20:44;;;;;;;10.20;6.60;;;;;;;-3.44;85.44;101103.39;84511;1332;24258;-72
2022/01/29 04:22:50;;;;;;;11.10;5.80;;;;;;;-3.48;85.32;101100.55;84507;1327;24213;-72
2022/01/29 04:24:56;;;;;;;11.80;6.30;;;;;;;-3.52;85.49;101099.75;84488;1332;22687;-73
2022/01/29 04:27:09;;;;;;;7.10;5.10;;;;;;;-3.55;85.48;101098.30;84473;1333;22609;-77
2022/01/29 04:29:15;;;;;;;9.60;5.30;;;;;;;-3.56;85.63;101098.42;84451;1333;22616;-77
2022/01/29 04:31:22;;;;;;;10.40;4.30;;;;;;;-3.56;85.66;101098.75;84461;1334;22633;-78
2022/01/29 04:33:30;;;;;;;7.80;5.20;;;;;;;-3.55;85.71;101097.59;84514;1332;22604;-77
2022/01/29 04:35:39;;;;;;;7.30;4.60;;;;;;;-3.54;85.97;101095.09;84492;1333;22631;-72
2022/01/29 04:37:45;;;;;;;11.00;3.90;;;;;;;-3.50;86.15;101090.78;84403;1333;22713;-72
2022/01/29 04:39:54;;;;;;;11.80;6.60;;;;;;;-3.44;86.19;101090.09;84476;1326;22615;-72
2022/01/29 04:42:00;;;;;;;7.70;4.60;;;;;;;-3.41;86.28;101084.57;84467;1333;22698;-77
2022/01/29 04:44:09;;;;;;;11.20;4.70;;;;;;;-3.38;86.20;101082.60;83777;1326;1003774;-77
2022/01/29 04:46:15;;;;;;;9.20;4.30;;;;;;;-3.35;86.20;101085.08;84508;1335;23544;-72
2022/01/29 04:48:22;;;;;;;10.80;5.40;;;;;;;-3.34;86.29;101084.60;83807;1326;1003558;-72
2022/01/29 04:50:31;;;;;;;8.20;4.40;;;;;;;-3.33;86.17;101081.72;84561;1335;23562;-77
2022/01/29 04:52:37;;;;;;;7.90;4.00;;;;;;;-3.32;86.27;101080.89;84506;1328;22806;-77
2022/01/29 04:54:43;;;;;;;6.70;3.70;;;;;;;-3.31;86.27;101075.45;84417;1334;22688;-79
2022/01/29 04:56:49;;;;;;;7.10;3.40;;;;;;;-3.30;86.22;101080.45;84509;1334;22612;-73
2022/01/29 04:58:55;;;;;;;10.20;4.40;;;;;;;-3.30;86.10;101074.84;84448;1333;22614;-73
2022/01/29 05:01:04;;;;;;;7.90;3.70;;;;;;;-3.29;86.25;101072.99;84490;1332;24144;-72
2022/01/29 05:03:11;;;;;;;7.80;3.60;;;;;;;-3.26;86.31;101065.38;84435;1334;22625;-74
2022/01/29 05:05:23;;;;;;;8.40;4.50;;;;;;;-3.21;86.59;101063.29;84504;1332;22624;-73
2022/01/29 05:07:33;;;;;;;9.00;4.40;;;;;;;-3.17;86.65;101057.63;84519;1332;22673;-73
2022/01/29 05:09:39;;;;;;;9.40;4.30;;;;;;;-3.15;86.61;101061.98;84513;1332;24368;-73
2022/01/29 05:11:51;;;;;;;9.20;3.60;;;;;;;-3.14;86.63;101056.88;84527;1331;22598;-73
2022/01/29 05:13:58;;;;;;;12.80;4.00;;;;;;;-3.14;86.59;101056.36;84516;1335;22692;-72
2022/01/29 05:16:26;;;;;;;9.40;4.10;;;;;;;-3.15;86.62;101052.92;84499;1334;22622;-78
2022/01/29 05:28:17;;;;;;;11.00;4.70;;;;;;;-3.15;86.57;101041.33;84488;1335;22650;-75
2022/01/29 05:30:23;;;;;;;6.60;3.60;;;;;;;-3.13;86.77;101036.59;84511;1331;22550;-73
2022/01/29 05:32:29;;;;;;;10.10;4.50;;;;;;;-3.10;86.70;101036.67;84516;1334;22592;-73
2022/01/29 05:34:35;;;;;;;10.40;4.40;;;;;;;-3.08;86.89;101041.50;84516;1332;25330;-74
2022/01/29 05:36:41;;;;;;;10.40;4.30;;;;;;;-3.06;86.77;101038.98;84498;1333;22630;-73
2022/01/29 05:38:47;;;;;;;9.70;5.20;;;;;;;-3.04;86.89;101037.52;84515;1323;22827;-73
2022/01/29 05:40:56;;;;;;;8.50;5.10;;;;;;;-3.02;87.11;101037.56;84478;1331;22600;-77
2022/01/29 05:43:01;;;;;;;10.90;4.50;;;;;;;-3.00;87.05;101034.22;84525;1332;23931;-78
2022/01/29 05:45:08;;;;;;;14.90;5.30;;;;;;;-3.00;87.01;101034.90;84516;1331;25508;-77
2022/01/29 05:47:14;;;;;;;9.80;4.30;;;;;;;-3.01;86.79;101031.46;84499;1332;23072;-71
2022/01/29 05:49:20;;;;;;;16.40;5.00;;;;;;;-3.03;86.84;101032.75;84523;1331;22638;-72
2022/01/29 05:51:29;;;;;;;8.10;4.50;;;;;;;-3.05;86.83;101034.42;84576;1332;25656;-72
2022/01/29 05:53:35;;;;;;;11.80;5.10;;;;;;;-3.06;86.98;101030.63;84425;1332;23985;-72
2022/01/29 05:55:41;;;;;;;10.50;5.80;;;;;;;-3.06;86.75;101031.64;84564;1333;22601;-80
2022/01/29 05:57:50;;;;;;;10.30;5.50;;;;;;;-3.07;86.95;101025.48;84560;1330;25481;-78
2022/01/29 05:59:56;;;;;;;14.00;5.30;;;;;;;-3.07;86.99;101026.16;84503;1332;22734;-78
2022/01/29 06:02:02;;;;;;;13.40;5.90;;;;;;;-3.07;87.05;101028.20;84528;1332;24329;-74
2022/01/29 06:04:11;;;;;;;10.90;6.00;;;;;;;-3.04;87.29;101025.55;83811;1328;1003147;-72
2022/01/29 06:06:17;;;;;;;9.20;4.60;;;;;;;-3.01;87.41;101022.55;84483;1332;22830;-79
2022/01/29 06:08:23;;;;;;;11.40;6.00;;;;;;;-3.00;87.28;101029.77;84503;1332;24214;-79
2022/01/29 06:10:29;;;;;;;9.80;6.30;;;;;;;-2.98;87.32;101026.92;84554;1324;22612;-72
2022/01/29 06:12:35;;;;;;;12.90;5.10;;;;;;;-2.97;87.18;101021.83;84497;1331;22600;-73
2022/01/29 06:14:42;;;;;;;9.50;5.20;;;;;;;-2.99;87.22;101020.41;84500;1327;22635;-73
2022/01/29 06:16:48;;;;;;;11.50;5.10;;;;;;;-3.01;87.18;101018.80;84515;1331;22619;-77
2022/01/29 06:18:54;;;;;;;10.50;4.90;;;;;;;-3.03;87.07;101022.86;84488;1328;22713;-79
2022/01/29 06:21:04;;;;;;;12.80;6.20;;;;;;;-3.04;86.94;101024.38;84529;1332;22597;-74
2022/01/29 06:23:11;;;;;;;12.20;5.50;;;;;;;-3.08;86.91;101024.27;84512;1332;23921;-72
2022/01/29 06:25:22;;;;;;;11.50;4.50;;;;;;;-3.11;87.05;101013.94;84455;1334;22627;-72
2022/01/29 06:27:27;;;;;;;9.10;5.30;;;;;;;-3.11;87.23;101013.58;84511;1331;22588;-77
2022/01/29 06:29:36;;;;;;;15.10;4.80;;;;;;;-3.11;87.27;101022.83;84530;1332;22669;-78
2022/01/29 06:31:42;;;;;;;7.20;4.50;;;;;;;-3.10;87.28;101024.90;84522;1331;22689;-73
2022/01/29 06:33:48;;;;;;;8.30;4.40;;;;;;;-3.10;87.24;101023.70;84504;1332;22596;-73
2022/01/29 06:35:54;;;;;;;8.00;4.50;;;;;;;-3.09;87.19;101026.30;84534;1326;22622;-78
2022/01/29 06:38:00;;;;;;;16.40;4.60;;;;;;;-3.07;87.31;101022.91;84449;1333;22611;-76
2022/01/29 06:40:09;;;;;;;8.50;4.40;;;;;;;-3.05;87.39;101025.04;84485;1331;23930;-78
2022/01/29 06:42:18;;;;;;;8.70;4.30;;;;;;;-3.02;87.42;101031.58;84484;1326;24380;-73
2022/01/29 06:44:25;;;;;;;12.20;5.50;;;;;;;-3.02;87.37;101033.80;84509;1331;22606;-73
2022/01/29 06:46:35;;;;;;;12.10;6.80;;;;;;;-3.03;87.21;101032.77;84483;1332;25013;-76
2022/01/29 06:48:44;;;;;;;10.40;5.10;;;;;;;-3.04;87.34;101034.27;84514;1331;25458;-73
2022/01/29 06:50:51;;;;;;;10.60;5.70;;;;;;;-3.04;87.29;101036.66;84499;1335;22712;-75
2022/01/29 06:53:00;;;;;;;14.30;5.30;;;;;;;-3.03;87.44;101038.73;84436;1334;25298;-74
2022/01/29 06:55:08;;;;;;;12.00;5.50;;;;;;;-3.00;87.57;101038.99;84513;1332;22622;-74
2022/01/29 06:57:15;;;;;;;13.50;6.10;;;;;;;-2.97;87.54;101037.03;84516;1332;22636;-74
2022/01/29 06:59:26;;;;;;;12.20;5.30;;;;;;;-2.93;87.59;101032.02;84459;1330;22605;-72
2022/01/29 07:01:32;;;;;;;13.40;6.70;;;;;;;-2.88;87.74;101023.80;84498;1327;22607;-73
2022/01/29 07:03:39;;;;;;;16.50;6.80;;;;;;;-2.81;87.76;101020.73;84501;1331;22858;-74
2022/01/29 07:05:49;;;;;;;13.80;7.10;;;;;;;-2.75;87.64;101013.86;84521;1332;24228;-76
2022/01/29 07:07:54;;;;;;;;;;;;;;;-2.67;87.77;101009.48;84501;1334;22596;-79
2022/01/29 07:10:01;;;;;;;18.10;8.40;;;;;;;-2.53;87.99;100999.75;84457;1335;24244;-79
2022/01/29 07:12:12;;;;;;;12.10;6.70;;;;;;;-1.96;88.37;100997.36;84556;1333;22589;-79
2022/01/29 07:14:21;;;;;;;9.70;6.10;;;;;;;-1.08;88.71;100998.69;84502;1332;23913;-79
2022/01/29 07:16:27;;;;;;;12.40;6.20;;;;;;;-0.19;89.08;100981.42;84494;1332;24413;-75
2022/01/29 07:18:32;;;;;;;16.70;8.00;;;;;;;0.60;88.73;100973.92;84500;1331;22602;-74
2022/01/29 07:20:39;;;;;;;16.30;6.90;;;;;;;1.40;88.01;100964.13;84419;1333;22611;-79
2022/01/29 07:22:44;;;;;;;13.90;6.80;;;;;;;2.19;87.60;100960.91;84498;1329;25506;-80
2022/01/29 07:24:53;;;;;;;17.00;7.40;;;;;;;2.87;86.40;100957.42;84499;1331;22854;-80
2022/01/29 07:27:00;;;;;;;18.10;8.20;;;;;;;3.33;85.17;100949.75;84448;1333;22601;-73
2022/01/29 07:29:09;;;;;;;20.70;7.70;;;;;;;3.57;83.06;100945.44;84500;1331;23228;-74
2022/01/29 07:31:16;;;;;;;12.20;7.10;;;;;;;3.82;82.40;100940.94;84455;1334;22950;-80
2022/01/29 07:33:22;;;;;;;15.10;7.50;;;;;;;3.93;80.38;100935.73;84505;1332;24219;-79
2022/01/29 07:35:29;;;;;;;15.70;6.60;;;;;;;3.93;79.38;100934.20;84502;1330;22728;-74
2022/01/29 07:37:34;;;;;;;14.70;6.90;;;;;;;3.83;78.46;100935.94;84485;1332;22714;-75
2022/01/29 07:39:43;;;;;;;12.40;6.70;;;;;;;3.65;77.03;100929.91;84494;1327;22607;-74
2022/01/29 07:41:53;;;;;;;16.00;8.30;;;;;;;3.35;76.52;100926.82;84466;1332;24407;-79
2022/01/29 07:43:58;;;;;;;11.20;7.40;;;;;;;3.13;76.49;100928.52;84413;1333;22570;-81
2022/01/29 07:46:06;;;;;;;12.70;6.90;;;;;;;2.92;76.40;100928.14;83861;1332;1003099;-73
2022/01/29 07:48:14;;;;;;;12.20;6.20;;;;;;;2.76;76.27;100927.41;84475;1331;23970;-74
2022/01/29 07:50:23;;;;;;;13.80;6.40;;;;;;;2.62;76.26;100924.45;84511;1332;25720;-76
2022/01/29 07:52:31;;;;;;;12.50;7.20;;;;;;;2.63;76.51;100925.31;84485;1332;22793;-81
2022/01/29 07:54:37;;;;;;;12.00;6.10;;;;;;;2.85;77.30;100921.75;84501;1332;22611;-80
2022/01/29 07:56:46;;;;;;;14.20;5.90;;;;;;;3.20;77.64;100915.08;84514;1331;22763;-74
2022/01/29 07:58:55;;;;;;;13.00;5.60;;;;;;;3.70;77.33;100912.83;84447;1334;22621;-73
2022/01/29 08:01:05;;;;;;;11.30;6.50;;;;;;;4.18;76.64;100905.47;84434;1335;22593;-74
2022/01/29 08:03:15;;;;;;;11.70;6.30;;;;;;;4.64;76.02;100897.15;84473;1326;22698;-74
2022/01/29 08:05:22;;;;;;;11.60;6.50;;;;;;;5.19;74.57;100894.56;84465;1335;24260;-77
2022/01/29 08:07:28;;;;;;;14.90;6.10;;;;;;;5.79;73.17;100885.71;84497;1335;24050;-74
2022/01/29 08:09:35;;;;;;;15.90;6.60;;;;;;;6.35;71.57;100885.30;84508;1331;22640;-74
2022/01/29 08:11:44;;;;;;;11.70;6.20;;;;;;;6.70;70.40;100883.27;84517;1333;22669;-81
2022/01/29 08:13:50;;;;;;;14.40;6.30;;;;;;;7.00;68.77;100880.08;84496;1332;24251;-81
2022/01/29 08:15:59;;;;;;;11.80;6.50;;;;;;;7.22;68.45;100871.73;84478;1332;22604;-80
2022/01/29 08:18:05;;;;;;;8.30;6.00;;;;;;;7.42;67.00;100873.31;84433;1335;24111;-80
2022/01/29 08:20:13;;;;;;;10.20;5.50;;;;;;;7.62;66.28;100872.95;84505;1332;24253;-79
2022/01/29 08:22:19;;;;;;;12.30;6.70;;;;;;;7.89;65.16;100866.56;84483;1330;22640;-74
2022/01/29 08:24:25;;;;;;;8.80;6.30;;;;;;;8.03;64.94;100865.95;84449;1333;22686;-74
2022/01/29 08:26:32;;;;;;;13.40;7.00;;;;;;;8.07;63.92;100863.45;84545;1331;22658;-77
2022/01/29 08:28:38;;;;;;;14.50;6.00;;;;;;;7.96;62.49;100860.16;84506;1332;22637;-79
2022/01/29 08:30:48;;;;;;;12.20;6.10;;;;;;;7.89;62.47;100859.44;84489;1332;24368;-73
2022/01/29 08:32:58;;;;;;;15.20;6.00;;;;;;;8.08;62.63;100855.42;84497;1327;22628;-74
2022/01/29 08:35:07;;;;;;;;;;;;;;;8.32;62.16;100848.85;84495;1331;22651;-73
2022/01/29 08:37:13;;;;;;;15.80;6.80;;;;;;;8.33;61.48;100845.17;84545;1332;22596;-79
2022/01/29 08:39:19;;;;;;;13.30;5.80;;;;;;;8.18;61.27;100846.02;84476;1331;22871;-81
2022/01/29 08:41:25;;;;;;;17.50;7.20;;;;;;;7.76;60.87;100839.36;84450;1329;22725;-74
2022/01/29 08:43:32;;;;;;;18.60;6.60;;;;;;;7.33;61.33;100836.31;84488;1331;25490;-74
2022/01/29 08:45:38;;;;;;;12.90;6.60;;;;;;;6.91;61.54;100837.02;84491;1332;25450;-80
2022/01/29 08:47:46;;;;;;;14.10;7.20;;;;;;;6.51;61.81;100839.31;84473;1333;24192;-80
2022/01/29 08:49:52;;;;;;;13.60;7.50;;;;;;;6.32;62.67;100838.02;84515;1328;22631;-81
2022/01/29 08:52:01;;;;;;;17.30;6.90;;;;;;;6.54;63.51;100826.29;84487;1331;22600;-74
2022/01/29 08:54:08;;;;;;;17.10;6.60;;;;;;;6.87;62.45;100822.67;84491;1332;22842;-74
2022/01/29 08:56:15;;;;;;;19.50;7.90;;;;;;;7.14;62.99;100825.70;84535;1335;26478;-79
2022/01/29 08:58:21;;;;;;;19.40;7.20;;;;;;;7.54;62.75;100826.75;84500;1332;23902;-79
2022/01/29 09:00:28;;;;;;;16.60;7.50;;;;;;;7.91;62.13;100825.18;84503;1332;22607;-78
2022/01/29 09:02:35;;;;;;;14.60;6.80;;;;;;;8.23;61.00;100822.45;84477;1331;22674;-78
2022/01/29 09:04:40;;;;;;;16.00;7.60;;;;;;;8.41;59.29;100823.66;84409;1333;23922;-79
2022/01/29 09:06:46;;;;;;;17.20;8.20;;;;;;;8.46;60.03;100824.59;84523;1332;22623;-78
2022/01/29 09:08:56;;;;;;;13.60;7.20;;;;;;;8.35;59.69;100828.80;84510;1331;22596;-79
2022/01/29 09:11:02;;;;;;;17.30;7.60;;;;;;;8.30;59.61;100825.59;84476;1333;22767;-79
2022/01/29 09:13:08;;;;;;;15.80;7.50;;;;;;;8.47;58.95;100826.29;84459;1333;22589;-79
2022/01/29 09:15:15;;;;;;;17.00;6.80;;;;;;;8.59;59.01;100821.52;84492;1327;22775;-79
2022/01/29 09:17:24;;;;;;;16.10;8.00;;;;;;;8.61;58.97;100822.70;84534;1332;24257;-72
2022/01/29 09:19:30;;;;;;;14.60;8.10;;;;;;;8.61;59.00;100824.08;84475;1334;25520;-74
2022/01/29 09:21:36;;;;;;;14.80;7.50;;;;;;;8.65;58.60;100824.86;84520;1331;22726;-80
2022/01/29 09:23:45;;;;;;;14.00;7.40;;;;;;;8.74;58.81;100817.50;84490;1332;25281;-77
2022/01/29 09:25:51;;;;;;;13.50;7.80;;;;;;;8.69;58.29;100816.58;84490;1333;22649;-79
2022/01/29 09:27:57;;;;;;;13.50;6.80;;;;;;;8.63;58.04;100813.27;84464;1332;22607;-80
2022/01/29 09:30:09;;;;;;;16.80;6.60;;;;;;;8.48;57.74;100809.94;84478;1328;22697;-80
2022/01/29 09:32:15;;;;;;;13.70;6.80;;;;;;;8.19;57.29;100804.27;84512;1327;22723;-75
2022/01/29 09:34:25;;;;;;;20.10;8.20;;;;;;;7.88;58.05;100801.80;84561;1332;25633;-73
2022/01/29 09:36:32;;;;;;;14.60;7.60;;;;;;;7.61;58.19;100800.08;84487;1331;22603;-81
2022/01/29 09:38:40;;;;;;;19.80;8.20;;;;;;;7.70;59.54;100799.19;84494;1332;23955;-80
2022/01/29 09:40:50;;;;;;;16.50;6.90;;;;;;;8.02;59.63;100785.88;84509;1332;22734;-79
2022/01/29 09:42:59;;;;;;;13.80;6.60;;;;;;;8.36;59.50;100780.80;84495;1331;22634;-79
2022/01/29 09:45:12;;;;;;;18.00;7.90;;;;;;;8.76;59.42;100770.15;84507;1332;23907;-79
2022/01/29 09:47:19;;;;;;;15.30;7.00;;;;;;;9.10;58.26;100765.46;84516;1331;22603;-80
2022/01/29 09:49:30;;;;;;;19.20;7.50;;;;;;;9.42;58.39;100759.42;84490;1332;22747;-80
2022/01/29 09:51:40;;;;;;;19.30;8.10;;;;;;;9.69;57.68;100751.72;84534;1332;24012;-79
2022/01/29 09:53:46;;;;;;;20.80;7.10;;;;;;;9.91;56.73;100743.05;84474;1333;25532;-79
2022/01/29 09:58:14;;;;;;;15.10;7.80;;;;;;;10.32;56.44;100737.83;82039;1363;544816;-74
2022/01/29 10:00:24;;;;;;;15.20;6.40;;;;;;;10.47;54.72;100736.15;84572;1330;25307;-74
2022/01/29 10:02:32;;;;;;;15.00;6.60;;;;;;;10.68;55.12;100730.59;84633;1329;22602;-80